Pembroke, Canada
Current Conditions -  °F | °C
As of 7:00 AM on Friday 24 Oct 2014 (Local Time) from CYWA Reporting Station
Clear Clear  
Wind Chill: 31°   Ceiling: Unl
Heat Index: 37°   Visibility: 9mi
Dew Point: 28°   Wind: 9mph
Humidity: 70%   Direction: 300°WNW
Pressure: 29.99"   Gusts: NA
Location:  45.83°N, 77.11°W
Report Text: CYWA 241100Z AUTO 30008KT 9SM CLR 03/M02 A2999 RMK SLP160
Loading
Personal Weather Stations






























Interactive Weather Map
Tropical Storm Tracking
New forecast layout! Learn more

10-Day Weather Forecast

Advertisements
Track Severe Weather on mobile